sim
Sign-in with your pilot id or email,
or register
Callsign
Passwort

Schedule Details

Flight Number: EWG7036
Departure: Hamburg Airport (EDDH) at 16:30
Arrival: Cologne Bonn Airport (EDDK) at 17:35
Route: Eurowings Passenger Schedule. Enter filed route here before submitting Pirep.

Weather Information
Getting current METAR information for EDDH 241450Z 23004KT 200V260 9999 -RA FEW011 BKN014 03/01 Q0997 TEMPO 4500 -RASN
Getting current METAR information for EDDK 241450Z 26005KT 9999 FEW023 BKN038 02/M01 Q1000 R14L/190295 R06///99// R14R///99// NOSIG

Schedule Frequency

Route Map